Quinby, South Carolina
Current Conditions -  °F | °C
As of 11:53 AM on Saturday 25 Oct 2014 (Local Time) from KFLO Reporting Station
Clear Clear  
Wind Chill: 67°   Ceiling: Unl
Heat Index: 67°   Visibility: 10mi
Dew Point: 41°   Wind: 5mph
Humidity: 39%   Direction: 20°NNE
Pressure: 30.02"   Gusts: NA
Location:  34.2096°N, 79.7279°W
Report Text: KFLO 251553Z 02004KT 10SM CLR 19/05 A3002 RMK AO2 SLP164 T01940050
Loading
Personal Weather Stations






























Interactive Weather Map New forecast layout! Learn more

10-Day Weather Forecast

Advertisements
Track Severe Weather on mobile